< < Back
Terminal Aerodrome Forecast


Current Version              Previous Versions:   1  2  3  4  5  6  7  8  9  

Terminal Aerodrome Forecast

190
FTUS42 KTAE 241700
TAFABY
TAF
KABY 241720Z 2418/2518 03005KT P6SM FEW200=



Latest METAR

278
SAUS70 KWBC 251400 RRA
MTRABY
METAR KABY 251353Z 36003KT 10SM CLR 16/09 A3009 RMK AO2 SLP188
T01560094


USA.gov is the U.S. government's official web portal to all federal, state and local government web resources and services.